createdAt,value
2023-02-04T00:00:20.314Z,3.9
2023-02-04T00:01:30.614Z,3.9
2023-02-04T00:02:39.931Z,3.9
2023-02-04T00:03:47.869Z,3.9
2023-02-04T00:04:57.337Z,3.9
2023-02-04T00:06:07.288Z,3.9
2023-02-04T00:07:17.794Z,3.9
2023-02-04T00:08:26.805Z,3.9
2023-02-04T00:09:35.204Z,3.8
2023-02-04T00:10:43.812Z,3.9
2023-02-04T00:11:53.578Z,4
2023-02-04T00:13:03.740Z,3.8
2023-02-04T00:14:12.216Z,3.9
2023-02-04T00:15:21.284Z,3.9
2023-02-04T00:16:30.593Z,3.9
2023-02-04T00:17:38.810Z,3.9
2023-02-04T00:18:47.965Z,4
2023-02-04T00:19:57.707Z,3.8
2023-02-04T00:21:07.140Z,3.9
2023-02-04T00:22:16.619Z,3.8
2023-02-04T00:23:25.991Z,3.9
2023-02-04T00:24:35.091Z,3.8
2023-02-04T00:25:42.803Z,3.9
2023-02-04T00:26:51.056Z,3.9
2023-02-04T00:28:00.308Z,3.9
2023-02-04T00:29:08.420Z,3.8
2023-02-04T00:30:17.757Z,3.9
2023-02-04T00:31:27.196Z,3.9
2023-02-04T00:32:35.230Z,3.8
2023-02-04T00:33:44.854Z,3.9
2023-02-04T00:34:54.400Z,4
2023-02-04T00:36:02.763Z,3.8
2023-02-04T00:37:12.609Z,3.8
2023-02-04T00:38:20.726Z,3.8
2023-02-04T00:39:29.258Z,3.8
2023-02-04T00:40:38.047Z,3.7
2023-02-04T00:41:46.781Z,3.7
2023-02-04T00:42:56.605Z,3.8
2023-02-04T00:44:04.829Z,3.8
2023-02-04T00:45:12.644Z,3.7
2023-02-04T00:46:21.710Z,3.6
2023-02-04T00:47:30.298Z,3.8
2023-02-04T00:48:38.924Z,3.8
2023-02-04T00:49:46.563Z,3.7
2023-02-04T00:50:54.279Z,3.7
2023-02-04T00:52:04.462Z,3.7
2023-02-04T00:53:13.673Z,3.8
2023-02-04T00:54:23.034Z,3.6
2023-02-04T00:55:31.757Z,3.6
2023-02-04T00:56:39.850Z,3.6
2023-02-04T00:57:48.669Z,3.6
2023-02-04T00:58:57.443Z,3.7
2023-02-04T01:00:08.735Z,3.8
2023-02-04T01:01:18.644Z,3.8
2023-02-04T01:02:27.337Z,3.7
2023-02-04T01:03:34.875Z,3.8
2023-02-04T01:04:44.363Z,3.8
2023-02-04T01:05:52.734Z,3.7
2023-02-04T01:07:01.293Z,3.6
2023-02-04T01:08:09.913Z,3.8
2023-02-04T01:09:17.793Z,3.8
2023-02-04T01:10:26.993Z,3.8
2023-02-04T01:11:35.727Z,3.8
2023-02-04T01:12:43.525Z,3.7
2023-02-04T01:13:53.791Z,3.8
2023-02-04T01:15:01.902Z,3.8
2023-02-04T01:16:11.215Z,3.8
2023-02-04T01:17:22.031Z,3.8
2023-02-04T01:18:30.521Z,3.6
2023-02-04T01:19:39.995Z,3.8
2023-02-04T01:20:47.999Z,3.8
2023-02-04T01:21:57.212Z,3.8
2023-02-04T01:23:05.255Z,3.7
2023-02-04T01:24:14.890Z,3.8
2023-02-04T01:25:23.610Z,3.8
2023-02-04T01:26:32.503Z,3.7
2023-02-04T01:27:40.925Z,3.7
2023-02-04T01:28:48.779Z,3.7
2023-02-04T01:29:58.758Z,3.7
2023-02-04T01:31:08.308Z,3.8
2023-02-04T01:32:15.773Z,3.9
2023-02-04T01:33:24.299Z,3.8
2023-02-04T01:34:33.523Z,3.9
2023-02-04T01:35:43.181Z,3.9
2023-02-04T01:36:53.300Z,3.7
2023-02-04T01:38:02.420Z,3.7
2023-02-04T01:39:10.633Z,3.8
2023-02-04T01:40:19.097Z,3.8
2023-02-04T01:41:28.375Z,3.9
2023-02-04T01:42:36.049Z,3.7
2023-02-04T01:43:45.335Z,3.5
2023-02-04T01:44:53.887Z,3.5
2023-02-04T01:46:02.226Z,3.5
2023-02-04T01:47:12.730Z,3.3
2023-02-04T01:48:20.185Z,3.4
2023-02-04T01:49:28.502Z,3.3
2023-02-04T01:50:35.782Z,3.4
2023-02-04T01:51:44.522Z,3.4
2023-02-04T01:52:51.959Z,3.3
2023-02-04T01:54:00.576Z,3.3
2023-02-04T01:55:08.507Z,3.3
2023-02-04T01:56:16.821Z,3.2
2023-02-04T01:57:28.858Z,3.2
2023-02-04T01:58:37.687Z,3.1
2023-02-04T01:59:46.698Z,3
2023-02-04T02:00:56.676Z,3
2023-02-04T02:02:04.696Z,3.1
2023-02-04T02:03:24.657Z,3.1
2023-02-04T02:04:34.519Z,2.8
2023-02-04T02:05:42.580Z,2.8
2023-02-04T02:06:51.570Z,2.7
2023-02-04T02:07:59.256Z,2.8
2023-02-04T02:09:06.636Z,2.8
2023-02-04T02:10:14.982Z,2.8
2023-02-04T02:11:22.460Z,2.9
2023-02-04T02:12:31.798Z,3
2023-02-04T02:13:40.283Z,2.7
2023-02-04T02:14:48.463Z,2.7
2023-02-04T02:15:57.505Z,2.7
2023-02-04T02:17:05.918Z,2.7
2023-02-04T02:18:16.822Z,2.7
2023-02-04T02:19:24.331Z,2.8
2023-02-04T02:20:33.146Z,2.7
2023-02-04T02:21:41.422Z,2.6
2023-02-04T02:22:53.262Z,2.5
2023-02-04T02:24:06.335Z,2.5
2023-02-04T02:25:20.794Z,2.5
2023-02-04T02:26:30.982Z,2.5
2023-02-04T02:27:40.900Z,2.6
2023-02-04T02:28:49.915Z,2.5
2023-02-04T02:29:58.530Z,2.5
2023-02-04T02:31:06.442Z,2.4
2023-02-04T02:32:14.776Z,2.3
2023-02-04T02:33:23.484Z,2.4
2023-02-04T02:34:31.451Z,2.4
2023-02-04T02:35:39.361Z,2.4
2023-02-04T02:36:48.591Z,2.4
2023-02-04T02:37:58.833Z,2.4
2023-02-04T02:39:06.936Z,2.4
2023-02-04T02:40:16.325Z,2.2
2023-02-04T02:41:25.947Z,2.1
2023-02-04T02:42:35.278Z,1.9
2023-02-04T02:43:43.690Z,1.9
2023-02-04T02:44:51.581Z,2
2023-02-04T02:46:01.153Z,1.8
2023-02-04T02:47:10.407Z,1.9
2023-02-04T02:48:18.872Z,1.9
2023-02-04T02:49:26.565Z,1.8
2023-02-04T02:50:35.426Z,1.6
2023-02-04T02:51:44.590Z,1.7
2023-02-04T02:52:53.361Z,1.6
2023-02-04T02:54:03.389Z,1.6
2023-02-04T02:55:12.147Z,1.5
2023-02-04T02:56:21.421Z,1.5
2023-02-04T02:57:31.016Z,1.5
2023-02-04T02:58:42.332Z,1.6
2023-02-04T02:59:52.516Z,1.5
2023-02-04T03:01:02.164Z,1.7
2023-02-04T03:02:10.832Z,1.7
2023-02-04T03:03:19.411Z,1.7
2023-02-04T03:04:30.211Z,1.5
2023-02-04T03:05:39.486Z,1.5
2023-02-04T03:06:48.591Z,1.6
2023-02-04T03:07:57.262Z,1.6
2023-02-04T03:09:07.039Z,1.6
2023-02-04T03:10:14.573Z,1.5
2023-02-04T03:11:23.697Z,1.5
2023-02-04T03:12:31.747Z,1.6
2023-02-04T03:13:42.190Z,1.6
2023-02-04T03:14:50.870Z,1.6
2023-02-04T03:15:58.428Z,1.7
2023-02-04T03:17:07.136Z,1.6
2023-02-04T03:18:15.820Z,1.6
2023-02-04T03:19:26.187Z,1.4
2023-02-04T03:20:34.267Z,1.3
2023-02-04T03:21:43.290Z,1.2
2023-02-04T03:22:51.937Z,1.2
2023-02-04T03:24:01.433Z,1.3
2023-02-04T03:25:08.936Z,1.3
2023-02-04T03:26:18.742Z,1.2
2023-02-04T03:27:28.697Z,1.3
2023-02-04T03:28:37.251Z,1.3
2023-02-04T03:29:46.327Z,1.3
2023-02-04T03:30:54.723Z,1.2
2023-02-04T03:32:03.110Z,1.2
2023-02-04T03:33:14.771Z,1.2
2023-02-04T03:34:24.976Z,1.2
2023-02-04T03:35:33.673Z,1.2
2023-02-04T03:36:45.286Z,1.3
2023-02-04T03:37:55.092Z,1.2
2023-02-04T03:39:03.448Z,1.3
2023-02-04T03:40:11.208Z,1.2
2023-02-04T03:41:19.776Z,1.1
2023-02-04T03:42:27.713Z,1.3
2023-02-04T03:43:35.739Z,1.2
2023-02-04T03:44:44.232Z,1.2
2023-02-04T03:45:51.908Z,1.1
2023-02-04T03:47:01.486Z,1.3
2023-02-04T03:48:10.201Z,1.3
2023-02-04T03:49:20.125Z,1.3
2023-02-04T03:50:30.424Z,1.2
2023-02-04T03:51:38.085Z,1.2
2023-02-04T03:52:46.144Z,1.4
2023-02-04T03:53:55.092Z,1.4
2023-02-04T03:55:05.913Z,1.5
2023-02-04T03:56:15.946Z,1.3
2023-02-04T03:57:25.212Z,1.4
2023-02-04T03:58:35.333Z,1.2
2023-02-04T03:59:44.349Z,1.2
2023-02-04T04:00:52.632Z,1.2
2023-02-04T04:02:02.240Z,1.2
2023-02-04T04:03:10.487Z,1.1
2023-02-04T04:04:19.587Z,1.1
2023-02-04T04:05:27.254Z,1.1
2023-02-04T04:06:34.527Z,0.9
2023-02-04T04:07:44.597Z,1
2023-02-04T04:08:53.283Z,1.1
2023-02-04T04:10:04.732Z,1.1
2023-02-04T04:11:13.562Z,1.1
2023-02-04T04:12:22.693Z,0.8
2023-02-04T04:13:31.022Z,0.9
2023-02-04T04:14:38.987Z,0.9
2023-02-04T04:15:47.012Z,0.9
2023-02-04T04:16:54.712Z,0.8
2023-02-04T04:18:03.459Z,0.8
2023-02-04T04:19:12.930Z,0.8
2023-02-04T04:20:22.402Z,0.8
2023-02-04T04:21:30.286Z,0.8
2023-02-04T04:22:38.851Z,0.9
2023-02-04T04:23:46.335Z,0.8
2023-02-04T04:24:55.992Z,0.6
2023-02-04T04:26:04.785Z,0.7
2023-02-04T04:27:14.641Z,0.5
2023-02-04T04:28:23.564Z,0.5
2023-02-04T04:29:31.843Z,0.5
2023-02-04T04:30:40.867Z,0.6
2023-02-04T04:31:50.692Z,0.5
2023-02-04T04:32:59.322Z,0.5
2023-02-04T04:34:08.523Z,0.5
2023-02-04T04:35:16.277Z,0.5
2023-02-04T04:36:24.984Z,0.5
2023-02-04T04:37:34.964Z,0.4
2023-02-04T04:38:44.168Z,0.4
2023-02-04T04:39:53.631Z,0.4
2023-02-04T04:41:03.635Z,0.3
2023-02-04T04:42:12.239Z,0.3
2023-02-04T04:43:22.726Z,0.3
2023-02-04T04:44:30.618Z,0.4
2023-02-04T04:45:40.279Z,0.4
2023-02-04T04:46:48.349Z,0.3
2023-02-04T04:47:58.609Z,0.3
2023-02-04T04:49:07.517Z,0.2
2023-02-04T04:50:15.153Z,0.1
2023-02-04T04:51:24.480Z,0.1
2023-02-04T04:52:34.421Z,0
2023-02-04T04:53:43.857Z,0.1
2023-02-04T04:54:52.041Z,0.2
2023-02-04T04:56:00.595Z,0.3
2023-02-04T04:57:10.350Z,0.3
2023-02-04T04:58:18.600Z,0.3
2023-02-04T04:59:26.942Z,0
2023-02-04T05:00:35.714Z,0.1
2023-02-04T05:01:44.749Z,0.1
2023-02-04T05:02:53.601Z,0.1
2023-02-04T05:04:01.568Z,0.2
2023-02-04T05:05:09.252Z,0.1
2023-02-04T05:06:18.099Z,0.1
2023-02-04T05:07:28.141Z,0.1
2023-02-04T05:08:37.517Z,0.1
2023-02-04T05:09:44.702Z,0.1
2023-02-04T05:10:54.845Z,0.1
2023-02-04T05:12:04.417Z,0.1
2023-02-04T05:13:12.979Z,0.1
2023-02-04T05:14:21.448Z,0
2023-02-04T05:15:29.440Z,0.1
2023-02-04T05:16:38.395Z,0.1
2023-02-04T05:17:46.727Z,0
2023-02-04T05:18:55.446Z,0.1
2023-02-04T05:20:04.594Z,0
2023-02-04T05:21:13.596Z,-0.1
2023-02-04T05:22:23.365Z,-0.1
2023-02-04T05:23:32.242Z,-0.1
2023-02-04T05:24:40.759Z,0
2023-02-04T05:25:50.706Z,-0.2
2023-02-04T05:26:59.549Z,0
2023-02-04T05:28:09.355Z,0.1
2023-02-04T05:29:17.445Z,0.1
2023-02-04T05:30:25.925Z,-0.1
2023-02-04T05:31:34.615Z,-0.1
2023-02-04T05:32:43.552Z,0
2023-02-04T05:33:51.643Z,-0.1
2023-02-04T05:35:01.151Z,-0.3
2023-02-04T05:36:10.372Z,-0.2
2023-02-04T05:37:19.431Z,-0.2
2023-02-04T05:38:28.774Z,-0.2
2023-02-04T05:39:37.970Z,-0.1
2023-02-04T05:40:48.462Z,-0.2
2023-02-04T05:42:00.441Z,-0.1
2023-02-04T05:43:10.054Z,-0.1
2023-02-04T05:44:20.653Z,-0.3
2023-02-04T05:45:28.321Z,-0.3
2023-02-04T05:46:38.190Z,-0.2
2023-02-04T05:47:48.165Z,-0.2
2023-02-04T05:48:56.850Z,-0.3
2023-02-04T05:50:05.351Z,-0.1
2023-02-04T05:51:13.501Z,-0.2
2023-02-04T05:52:22.940Z,-0.2
2023-02-04T05:53:32.028Z,-0.1
2023-02-04T05:54:41.355Z,-0.2
2023-02-04T05:55:50.989Z,-0.2
2023-02-04T05:57:00.969Z,-0.1
2023-02-04T05:58:10.021Z,-0.1
2023-02-04T05:59:18.222Z,-0.2
2023-02-04T06:00:26.272Z,-0.2
2023-02-04T06:01:34.686Z,-0.2
2023-02-04T06:02:43.131Z,-0.1
2023-02-04T06:03:50.829Z,-0.1
2023-02-04T06:05:00.212Z,-0.1
2023-02-04T06:06:09.929Z,-0.1
2023-02-04T06:07:19.283Z,-0.1
2023-02-04T06:08:27.760Z,-0.1
2023-02-04T06:09:35.940Z,-0.2
2023-02-04T06:10:44.500Z,-0.2
2023-02-04T06:11:54.081Z,-0.1
2023-02-04T06:13:02.664Z,0
2023-02-04T06:14:10.996Z,-0.1
2023-02-04T06:15:18.540Z,-0.2
2023-02-04T06:16:26.463Z,-0.2
2023-02-04T06:17:34.186Z,-0.2
2023-02-04T06:18:43.567Z,-0.1
2023-02-04T06:19:53.890Z,-0.2
2023-02-04T06:21:02.587Z,-0.1
2023-02-04T06:22:10.081Z,-0.3
2023-02-04T06:23:19.053Z,-0.2
2023-02-04T06:24:27.988Z,-0.2
2023-02-04T06:25:38.471Z,-0.2
2023-02-04T06:26:48.259Z,-0.2
2023-02-04T06:27:59.274Z,-0.3
2023-02-04T06:29:09.020Z,-0.3
2023-02-04T06:30:17.514Z,-0.3
2023-02-04T06:31:25.428Z,-0.3
2023-02-04T06:32:36.207Z,-0.2
2023-02-04T06:33:45.756Z,-0.3
2023-02-04T06:34:54.478Z,-0.4
2023-02-04T06:36:03.643Z,-0.3
2023-02-04T06:37:12.395Z,-0.5
2023-02-04T06:38:20.520Z,-0.5
2023-02-04T06:39:28.847Z,-0.2
2023-02-04T06:40:36.202Z,-0.5
2023-02-04T06:41:43.687Z,-0.5
2023-02-04T06:42:52.199Z,-0.3
2023-02-04T06:44:01.795Z,-0.4
2023-02-04T06:45:10.402Z,-0.5
2023-02-04T06:46:22.324Z,-0.4
2023-02-04T06:47:30.932Z,-0.6
2023-02-04T06:48:39.930Z,-0.6
2023-02-04T06:49:48.916Z,-0.7
2023-02-04T06:50:57.208Z,-0.6
2023-02-04T06:52:06.912Z,-0.5
2023-02-04T06:53:14.794Z,-0.3
2023-02-04T06:54:22.743Z,-0.4
2023-02-04T06:55:31.466Z,-0.3
2023-02-04T06:56:42.358Z,-0.3
2023-02-04T06:57:51.865Z,-0.5
2023-02-04T06:59:02.501Z,-0.5
2023-02-04T07:00:08.807Z,-0.6
2023-02-04T07:01:18.877Z,-0.4
2023-02-04T07:02:28.171Z,-0.5
2023-02-04T07:03:37.166Z,-0.5
2023-02-04T07:04:47.840Z,-0.6
2023-02-04T07:05:55.463Z,-0.7
2023-02-04T07:07:04.387Z,-0.6
2023-02-04T07:08:13.965Z,-0.5
2023-02-04T07:09:21.332Z,-0.5
2023-02-04T07:10:29.321Z,-0.4
2023-02-04T07:11:38.908Z,-0.4
2023-02-04T07:12:46.028Z,-0.4
2023-02-04T07:13:53.952Z,-0.4
2023-02-04T07:15:02.208Z,-0.3
2023-02-04T07:16:10.301Z,-0.4
2023-02-04T07:17:19.332Z,-0.4
2023-02-04T07:18:28.070Z,-0.3
2023-02-04T07:19:35.828Z,-0.5
2023-02-04T07:20:46.181Z,-0.4
2023-02-04T07:21:54.300Z,-0.5
2023-02-04T07:23:04.437Z,-0.5
2023-02-04T07:24:13.494Z,-0.4
2023-02-04T07:25:23.063Z,-0.5
2023-02-04T07:26:32.980Z,-0.4
2023-02-04T07:27:41.827Z,-0.4
2023-02-04T07:28:51.000Z,-0.5
2023-02-04T07:30:00.875Z,-0.5
2023-02-04T07:31:09.885Z,-0.4
2023-02-04T07:32:19.508Z,-0.4
2023-02-04T07:33:29.032Z,-0.3
2023-02-04T07:34:38.344Z,-0.5
2023-02-04T07:35:50.615Z,-0.4
2023-02-04T07:37:00.339Z,-0.4
2023-02-04T07:38:09.308Z,-0.4
2023-02-04T07:39:27.682Z,-0.5
2023-02-04T07:40:38.738Z,-0.6
2023-02-04T07:41:48.674Z,-0.5
2023-02-04T07:42:58.031Z,-0.2
2023-02-04T07:44:06.795Z,-0.3
2023-02-04T07:45:15.386Z,-0.4
2023-02-04T07:46:25.692Z,-0.5
2023-02-04T07:47:33.280Z,-0.4
2023-02-04T07:48:41.364Z,-0.5
2023-02-04T07:49:49.836Z,-0.5
2023-02-04T07:51:00.658Z,-0.7
2023-02-04T07:52:10.203Z,-0.5
2023-02-04T07:53:19.471Z,-0.3
2023-02-04T07:54:27.638Z,-0.4
2023-02-04T07:55:36.640Z,-0.5
2023-02-04T07:56:46.120Z,-0.6
2023-02-04T07:57:54.206Z,-0.4
2023-02-04T07:59:04.609Z,-0.4
2023-02-04T08:00:12.547Z,-0.4
2023-02-04T08:01:23.077Z,-0.3
2023-02-04T08:02:31.258Z,-0.3
2023-02-04T08:03:41.779Z,-0.3
2023-02-04T08:04:51.121Z,-0.3
2023-02-04T08:05:59.293Z,-0.4
2023-02-04T08:07:08.983Z,-0.4
2023-02-04T08:08:17.332Z,-0.6
2023-02-04T08:09:25.713Z,-0.5
2023-02-04T08:10:33.567Z,-0.5
2023-02-04T08:11:41.527Z,-0.4
2023-02-04T08:12:50.703Z,-0.4
2023-02-04T08:13:59.111Z,-0.3
2023-02-04T08:15:07.482Z,-0.2
2023-02-04T08:16:14.812Z,-0.3
2023-02-04T08:17:22.930Z,-0.3
2023-02-04T08:18:30.457Z,-0.4
2023-02-04T08:19:38.519Z,-0.3
2023-02-04T08:20:46.630Z,-0.3
2023-02-04T08:21:53.654Z,-0.4
2023-02-04T08:23:01.307Z,-0.3
2023-02-04T08:24:09.318Z,-0.4
2023-02-04T08:25:16.694Z,-0.4
2023-02-04T08:26:23.701Z,-0.4
2023-02-04T08:27:31.819Z,-0.3
2023-02-04T08:28:38.940Z,-0.3
2023-02-04T08:29:46.993Z,-0.4
2023-02-04T08:30:55.603Z,-0.4
2023-02-04T08:32:04.524Z,-0.5
2023-02-04T08:33:11.414Z,-0.4
2023-02-04T08:34:19.567Z,-0.4
2023-02-04T08:35:26.716Z,-0.5
2023-02-04T08:36:33.876Z,-0.5
2023-02-04T08:37:41.829Z,-0.5
2023-02-04T08:38:50.170Z,-0.4
2023-02-04T08:39:57.330Z,-0.4
2023-02-04T08:41:05.647Z,-0.4
2023-02-04T08:42:13.941Z,-0.4
2023-02-04T08:43:21.163Z,-0.3
2023-02-04T08:44:29.115Z,-0.2
2023-02-04T08:45:36.371Z,-0.2
2023-02-04T08:46:43.610Z,-0.2
2023-02-04T08:47:51.827Z,0
2023-02-04T08:48:59.091Z,0
2023-02-04T08:50:06.948Z,-0.1
2023-02-04T08:51:14.813Z,-0.2
2023-02-04T08:52:23.164Z,-0.4
2023-02-04T08:53:30.714Z,-0.2
2023-02-04T08:54:38.010Z,-0.1
2023-02-04T08:55:45.056Z,-0.1
2023-02-04T08:56:53.380Z,-0.3
2023-02-04T08:58:01.417Z,-0.2
2023-02-04T08:59:08.550Z,-0.1
2023-02-04T09:00:15.735Z,-0.2
2023-02-04T09:01:22.879Z,-0.3
2023-02-04T09:02:30.365Z,-0.3
2023-02-04T09:03:37.531Z,-0.3
2023-02-04T09:04:44.611Z,-0.1
2023-02-04T09:05:52.638Z,-0.1
2023-02-04T09:07:00.260Z,-0.2
2023-02-04T09:08:07.722Z,-0.2
2023-02-04T09:09:16.312Z,-0.1
2023-02-04T09:10:24.930Z,-0.3
2023-02-04T09:11:31.926Z,-0.2
2023-02-04T09:12:39.952Z,-0.2
2023-02-04T09:13:47.466Z,-0.3
2023-02-04T09:14:54.354Z,-0.1
2023-02-04T09:16:02.536Z,-0.1
2023-02-04T09:17:10.011Z,0
2023-02-04T09:18:17.219Z,0
2023-02-04T09:19:24.297Z,0
2023-02-04T09:20:33.534Z,0
2023-02-04T09:21:42.005Z,0
2023-02-04T09:22:49.662Z,0
2023-02-04T09:23:56.978Z,0
2023-02-04T09:25:05.002Z,0.1
2023-02-04T09:26:13.197Z,0
2023-02-04T09:27:21.075Z,0
2023-02-04T09:28:29.001Z,0.1
2023-02-04T09:29:37.146Z,0.2
2023-02-04T09:30:46.959Z,0.3
2023-02-04T09:31:54.812Z,0.2
2023-02-04T09:33:03.040Z,0.3
2023-02-04T09:34:12.118Z,0.4
2023-02-04T09:35:20.513Z,0.3
2023-02-04T09:36:27.502Z,0.5
2023-02-04T09:37:34.772Z,0.5
2023-02-04T09:38:42.865Z,0.6
2023-02-04T09:39:49.804Z,0.7
2023-02-04T09:40:58.771Z,0.6
2023-02-04T09:42:05.716Z,0.4
2023-02-04T09:43:14.402Z,0.5
2023-02-04T09:44:21.412Z,0.6
2023-02-04T09:45:29.338Z,0.7
2023-02-04T09:46:36.789Z,0.5
2023-02-04T09:47:43.941Z,0.4
2023-02-04T09:48:51.772Z,0.5
2023-02-04T09:50:01.269Z,0.4
2023-02-04T09:51:09.175Z,0.5
2023-02-04T09:52:17.268Z,0.6
2023-02-04T09:53:25.395Z,0.5
2023-02-04T09:54:32.812Z,0.6
2023-02-04T09:55:41.493Z,0.7
2023-02-04T09:56:49.696Z,0.5
2023-02-04T09:57:57.100Z,0.6
2023-02-04T09:59:04.436Z,0.4
2023-02-04T10:00:16.139Z,0.4
2023-02-04T10:01:25.146Z,0.3
2023-02-04T10:02:33.480Z,0.4
2023-02-04T10:03:40.740Z,0.6
2023-02-04T10:04:47.835Z,0.8
2023-02-04T10:05:55.832Z,0.9
2023-02-04T10:07:04.647Z,0.9
2023-02-04T10:08:12.534Z,0.9
2023-02-04T10:09:20.865Z,0.7
2023-02-04T10:10:28.293Z,0.9
2023-02-04T10:11:36.497Z,0.8
2023-02-04T10:12:43.742Z,1
2023-02-04T10:13:51.218Z,1
2023-02-04T10:14:58.574Z,0.9
2023-02-04T10:16:07.140Z,0.8
2023-02-04T10:17:15.248Z,1
2023-02-04T10:18:23.664Z,1
2023-02-04T10:19:35.646Z,0.9
2023-02-04T10:20:43.289Z,1
2023-02-04T10:21:51.373Z,1.2
2023-02-04T10:22:58.700Z,1
2023-02-04T10:24:05.793Z,1.2
2023-02-04T10:25:18.885Z,1.2
2023-02-04T10:26:27.628Z,1.4
2023-02-04T10:27:35.200Z,1.5
2023-02-04T10:28:51.434Z,1.8
2023-02-04T10:30:01.911Z,1.8
2023-02-04T10:31:09.755Z,1.8
2023-02-04T10:32:29.146Z,2
2023-02-04T10:33:37.385Z,2.1
2023-02-04T10:34:44.593Z,2
2023-02-04T10:35:52.175Z,2.1
2023-02-04T10:37:00.464Z,1.8
2023-02-04T10:38:08.622Z,1.7
2023-02-04T10:39:17.190Z,1
2023-02-04T10:40:29.592Z,0.7
2023-02-04T10:41:36.811Z,0.6
2023-02-04T10:42:50.596Z,0.6
2023-02-04T10:44:00.509Z,0.7
2023-02-04T10:45:10.659Z,0.8
2023-02-04T10:46:27.843Z,1
2023-02-04T10:47:34.797Z,1.1
2023-02-04T10:48:42.168Z,1.1
2023-02-04T10:49:49.240Z,1.1
2023-02-04T10:50:59.447Z,1.2
2023-02-04T10:52:07.015Z,1.3
2023-02-04T10:53:17.374Z,1.5
2023-02-04T10:54:30.912Z,1.2
2023-02-04T10:55:38.890Z,1.2
2023-02-04T10:56:47.059Z,1.4
2023-02-04T10:57:54.410Z,1.2
2023-02-04T10:59:02.942Z,1
2023-02-04T11:00:10.035Z,1.1
2023-02-04T11:01:22.509Z,0.9
2023-02-04T11:02:32.287Z,0.7
2023-02-04T11:03:47.070Z,0.7
2023-02-04T11:04:54.641Z,0.6
2023-02-04T11:06:02.766Z,0.8
2023-02-04T11:07:20.583Z,0.9
2023-02-04T11:08:28.438Z,1
2023-02-04T11:09:36.777Z,1
2023-02-04T11:10:49.520Z,1
2023-02-04T11:12:02.164Z,1.1
2023-02-04T11:13:15.232Z,1.3
2023-02-04T11:14:35.069Z,1.5
2023-02-04T11:15:44.173Z,1.4
2023-02-04T11:16:55.012Z,1.7
2023-02-04T11:18:06.964Z,1.7
2023-02-04T11:19:26.209Z,1.8
2023-02-04T11:20:34.896Z,2
2023-02-04T11:21:49.117Z,1.8
2023-02-04T11:22:58.908Z,1.7
2023-02-04T11:24:19.432Z,1.5
2023-02-04T11:25:29.089Z,1.1
2023-02-04T11:26:38.424Z,1.2
2023-02-04T11:27:55.059Z,1.3
2023-02-04T11:29:05.617Z,1.2
2023-02-04T11:30:16.660Z,1.4
2023-02-04T11:31:29.505Z,1.6
2023-02-04T11:32:45.609Z,1.3
2023-02-04T11:34:03.872Z,1.6
2023-02-04T11:35:13.581Z,1.4
2023-02-04T11:36:26.267Z,1.5
2023-02-04T11:37:35.106Z,1.4
2023-02-04T11:38:44.409Z,1.4
2023-02-04T11:39:52.281Z,1.3
2023-02-04T11:41:00.982Z,1.2
2023-02-04T11:42:09.886Z,1.1
2023-02-04T11:43:24.680Z,1.1
2023-02-04T11:44:33.957Z,1.1
2023-02-04T11:45:44.435Z,1.1
2023-02-04T11:46:56.199Z,0.9
2023-02-04T11:48:05.107Z,0.8
2023-02-04T11:49:18.303Z,0.8
2023-02-04T11:50:28.340Z,1
2023-02-04T11:51:38.448Z,0.9
2023-02-04T11:52:48.213Z,0.9
2023-02-04T11:53:57.080Z,0.9
2023-02-04T11:55:07.087Z,0.9
2023-02-04T11:56:16.333Z,1
2023-02-04T11:57:25.736Z,1.1
2023-02-04T11:58:36.764Z,0.9
2023-02-04T11:59:47.877Z,0.6
2023-02-04T12:00:56.783Z,0.9
2023-02-04T12:02:05.687Z,1
2023-02-04T12:03:21.088Z,0.7
2023-02-04T12:04:33.462Z,0.8
2023-02-04T12:05:44.583Z,0.8
2023-02-04T12:06:52.523Z,0.7
2023-02-04T12:08:03.710Z,0.8
2023-02-04T12:09:15.034Z,0.8
2023-02-04T12:10:24.017Z,0.9
2023-02-04T12:11:32.697Z,1.2
2023-02-04T12:12:42.443Z,1
2023-02-04T12:13:53.560Z,1.2
2023-02-04T12:15:04.081Z,1.3
2023-02-04T12:16:21.277Z,1.3
2023-02-04T12:17:30.668Z,1.1
2023-02-04T12:18:41.714Z,0.9
2023-02-04T12:19:50.198Z,1
2023-02-04T12:20:58.698Z,1
2023-02-04T12:22:07.500Z,1.2
2023-02-04T12:23:15.951Z,0.9
2023-02-04T12:24:26.365Z,0.9
2023-02-04T12:25:35.535Z,1.1
2023-02-04T12:26:44.971Z,1.2
2023-02-04T12:27:56.070Z,0.8
2023-02-04T12:29:03.533Z,1
2023-02-04T12:30:13.009Z,1
2023-02-04T12:31:22.612Z,0.9
2023-02-04T12:32:32.735Z,0.9
2023-02-04T12:33:41.760Z,1.2
2023-02-04T12:34:50.501Z,1.3
2023-02-04T12:36:00.223Z,1.2
2023-02-04T12:37:09.927Z,0.8
2023-02-04T12:38:20.499Z,1
2023-02-04T12:39:26.943Z,1
2023-02-04T12:40:35.228Z,1.1
2023-02-04T12:41:43.562Z,1.3
2023-02-04T12:42:51.816Z,1.2
2023-02-04T12:44:01.279Z,1.1
2023-02-04T12:45:10.624Z,1
2023-02-04T12:46:20.297Z,1
2023-02-04T12:47:28.722Z,1
2023-02-04T12:48:38.091Z,1.1
2023-02-04T12:49:46.877Z,1.1
2023-02-04T12:50:54.720Z,1.2
2023-02-04T12:52:05.538Z,1
2023-02-04T12:53:14.390Z,0.9
2023-02-04T12:54:21.857Z,0.9
2023-02-04T12:55:31.990Z,0.8
2023-02-04T12:56:40.589Z,0.9
2023-02-04T12:57:48.176Z,1
2023-02-04T12:58:56.358Z,1
2023-02-04T13:00:04.769Z,1
2023-02-04T13:01:12.374Z,0.8
2023-02-04T13:02:20.904Z,0.7
2023-02-04T13:03:29.153Z,0.6
2023-02-04T13:04:39.725Z,0.7
2023-02-04T13:05:48.765Z,0.7
2023-02-04T13:06:56.743Z,0.7
2023-02-04T13:08:05.580Z,0.7
2023-02-04T13:09:13.280Z,0.6
2023-02-04T13:10:23.256Z,0.7
2023-02-04T13:11:31.969Z,0.7
2023-02-04T13:12:43.018Z,0.6
2023-02-04T13:13:51.664Z,0.7
2023-02-04T13:15:03.139Z,0.7
2023-02-04T13:16:10.865Z,0.5
2023-02-04T13:17:21.076Z,0.4
2023-02-04T13:18:30.973Z,0.5
2023-02-04T13:19:38.812Z,0.6
2023-02-04T13:20:47.716Z,0.8
2023-02-04T13:21:59.004Z,0.7
2023-02-04T13:23:07.859Z,0.8
2023-02-04T13:24:17.081Z,0.8
2023-02-04T13:25:26.621Z,0.9
2023-02-04T13:26:37.276Z,0.5
2023-02-04T13:27:47.844Z,0.5
2023-02-04T13:28:56.720Z,0.7
2023-02-04T13:30:07.361Z,0.7
2023-02-04T13:31:17.373Z,0.8
2023-02-04T13:32:26.436Z,0.9
2023-02-04T13:33:35.333Z,0.7
2023-02-04T13:34:43.862Z,0.8
2023-02-04T13:35:53.100Z,0.7
2023-02-04T13:37:05.649Z,0.8
2023-02-04T13:38:15.179Z,0.7
2023-02-04T13:39:26.644Z,0.6
2023-02-04T13:40:39.071Z,0.6
2023-02-04T13:41:50.272Z,0.8
2023-02-04T13:42:59.152Z,0.8
2023-02-04T13:44:09.981Z,0.9
2023-02-04T13:45:20.295Z,0.9
2023-02-04T13:46:31.545Z,0.8
2023-02-04T13:47:42.222Z,0.8
2023-02-04T13:48:54.672Z,0.9
2023-02-04T13:50:05.543Z,0.9
2023-02-04T13:51:16.054Z,0.9
2023-02-04T13:52:25.171Z,0.9
2023-02-04T13:53:38.447Z,0.8
2023-02-04T13:54:47.834Z,0.7
2023-02-04T13:55:56.090Z,0.7
2023-02-04T13:57:07.738Z,0.6
2023-02-04T13:58:18.615Z,0.7
2023-02-04T13:59:29.159Z,0.5
2023-02-04T14:00:43.880Z,0.6
2023-02-04T14:01:55.017Z,0.6
2023-02-04T14:03:06.272Z,0.4
2023-02-04T14:04:17.196Z,0.4
2023-02-04T14:05:30.100Z,0.5
2023-02-04T14:06:40.668Z,0.3
2023-02-04T14:07:50.575Z,0.5
2023-02-04T14:09:01.102Z,0.7
2023-02-04T14:10:12.945Z,0.6
2023-02-04T14:11:22.638Z,0.5
2023-02-04T14:12:34.345Z,0.4
2023-02-04T14:13:45.797Z,0
2023-02-04T14:14:58.933Z,-0.2
2023-02-04T14:16:09.979Z,-0.2
2023-02-04T14:17:20.814Z,-0.4
2023-02-04T14:18:30.268Z,-0.3
2023-02-04T14:19:43.148Z,-0.3
2023-02-04T14:20:53.128Z,-0.5
2023-02-04T14:22:04.392Z,-0.5
2023-02-04T14:23:13.761Z,-0.1
2023-02-04T14:24:24.744Z,-0.2
2023-02-04T14:25:34.631Z,-0.1
2023-02-04T14:26:44.771Z,-0.2
2023-02-04T14:27:54.377Z,0.1
2023-02-04T14:29:05.515Z,0.1
2023-02-04T14:30:15.603Z,-0.1
2023-02-04T14:31:26.802Z,-0.1
2023-02-04T14:32:38.290Z,-0.1
2023-02-04T14:33:50.168Z,-0.1
2023-02-04T14:34:59.635Z,0
2023-02-04T14:36:10.143Z,-0.3
2023-02-04T14:37:19.236Z,-0.3
2023-02-04T14:38:31.757Z,-0.2
2023-02-04T14:39:44.462Z,-0.2
2023-02-04T14:40:53.763Z,-0.1
2023-02-04T14:42:02.451Z,-0.2
2023-02-04T14:43:12.970Z,-0.2
2023-02-04T14:44:22.515Z,0
2023-02-04T14:45:32.367Z,-0.4
2023-02-04T14:46:42.895Z,-0.2
2023-02-04T14:47:52.372Z,-0.6
2023-02-04T14:49:04.828Z,-0.8
2023-02-04T14:50:16.338Z,-1
2023-02-04T14:51:26.619Z,-1.2
2023-02-04T14:52:36.658Z,-1.2
2023-02-04T14:53:48.250Z,-1.4
2023-02-04T14:54:56.588Z,-1.3
2023-02-04T14:56:05.848Z,-1.2
2023-02-04T14:57:17.408Z,-1.2
2023-02-04T14:58:28.529Z,-1.3
2023-02-04T14:59:38.607Z,-1.2
2023-02-04T15:00:50.709Z,-1.1
2023-02-04T15:02:01.738Z,-1.1
2023-02-04T15:03:10.741Z,-1.1
2023-02-04T15:04:22.013Z,-1
2023-02-04T15:05:31.753Z,-0.8
2023-02-04T15:06:40.225Z,-0.9
2023-02-04T15:07:50.111Z,-0.7
2023-02-04T15:08:59.229Z,-0.6
2023-02-04T15:10:08.294Z,-0.6
2023-02-04T15:11:18.375Z,-0.7
2023-02-04T15:12:28.434Z,-1
2023-02-04T15:13:36.894Z,-0.9
2023-02-04T15:14:46.821Z,-0.8
2023-02-04T15:15:57.128Z,-0.8
2023-02-04T15:17:06.631Z,-1.1
2023-02-04T15:18:16.529Z,-1.1
2023-02-04T15:19:28.186Z,-1
2023-02-04T15:20:37.046Z,-0.8
2023-02-04T15:21:46.900Z,-1
2023-02-04T15:22:59.739Z,-0.9
2023-02-04T15:24:07.911Z,-0.7
2023-02-04T15:25:19.720Z,-1
2023-02-04T15:26:30.517Z,-0.8
2023-02-04T15:27:40.268Z,-0.6
2023-02-04T15:28:50.289Z,-0.5
2023-02-04T15:30:00.603Z,-0.4
2023-02-04T15:31:12.038Z,-0.4
2023-02-04T15:32:21.797Z,-0.3
2023-02-04T15:33:32.533Z,-0.4
2023-02-04T15:34:41.925Z,-0.6
2023-02-04T15:35:51.898Z,-0.6
2023-02-04T15:37:03.125Z,-0.6
2023-02-04T15:38:12.746Z,-0.6
2023-02-04T15:39:21.168Z,-0.7
2023-02-04T15:40:33.154Z,-0.8
2023-02-04T15:41:42.608Z,-0.7
2023-02-04T15:42:51.400Z,-0.8
2023-02-04T15:44:02.730Z,-1
2023-02-04T15:45:12.604Z,-1.1
2023-02-04T15:46:21.959Z,-1.1
2023-02-04T15:47:31.579Z,-0.9
2023-02-04T15:48:41.152Z,-0.7